sensor_id;sensor_type;location;lat;lon;timestamp;temperature;humidity
9057;DHT22;4563;54.756;9.400;2024-02-21T00:02:20;10.60;87.40
9057;DHT22;4563;54.756;9.400;2024-02-21T00:04:47;10.60;87.40
9057;DHT22;4563;54.756;9.400;2024-02-21T00:07:13;10.60;87.50
9057;DHT22;4563;54.756;9.400;2024-02-21T00:09:40;10.60;87.50
9057;DHT22;4563;54.756;9.400;2024-02-21T00:12:09;10.60;87.60
9057;DHT22;4563;54.756;9.400;2024-02-21T00:14:35;10.60;88.20
9057;DHT22;4563;54.756;9.400;2024-02-21T00:17:02;10.60;87.50
9057;DHT22;4563;54.756;9.400;2024-02-21T00:19:29;10.60;87.50
9057;DHT22;4563;54.756;9.400;2024-02-21T00:21:56;10.70;87.70
9057;DHT22;4563;54.756;9.400;2024-02-21T00:24:22;10.60;87.60
9057;DHT22;4563;54.756;9.400;2024-02-21T00:26:49;10.60;87.60
9057;DHT22;4563;54.756;9.400;2024-02-21T00:29:17;10.70;87.70
9057;DHT22;4563;54.756;9.400;2024-02-21T00:31:44;10.60;87.60
9057;DHT22;4563;54.756;9.400;2024-02-21T00:34:11;10.70;87.70
9057;DHT22;4563;54.756;9.400;2024-02-21T00:36:38;10.70;87.70
9057;DHT22;4563;54.756;9.400;2024-02-21T00:39:05;10.70;87.70
9057;DHT22;4563;54.756;9.400;2024-02-21T00:41:32;10.70;87.70
9057;DHT22;4563;54.756;9.400;2024-02-21T00:43:59;10.70;87.70
9057;DHT22;4563;54.756;9.400;2024-02-21T00:46:27;10.80;87.90
9057;DHT22;4563;54.756;9.400;2024-02-21T00:48:53;10.70;87.80
9057;DHT22;4563;54.756;9.400;2024-02-21T00:51:20;10.70;87.80
9057;DHT22;4563;54.756;9.400;2024-02-21T00:53:47;10.70;87.80
9057;DHT22;4563;54.756;9.400;2024-02-21T00:56:14;10.70;87.90
9057;DHT22;4563;54.756;9.400;2024-02-21T00:58:40;10.80;88.00
9057;DHT22;4563;54.756;9.400;2024-02-21T01:01:07;10.70;87.90
9057;DHT22;4563;54.756;9.400;2024-02-21T01:03:35;10.70;87.90
9057;DHT22;4563;54.756;9.400;2024-02-21T01:06:02;10.70;87.90
9057;DHT22;4563;54.756;9.400;2024-02-21T01:08:29;10.70;88.00
9057;DHT22;4563;54.756;9.400;2024-02-21T01:10:56;10.80;88.10
9057;DHT22;4563;54.756;9.400;2024-02-21T01:13:22;10.80;88.10
9057;DHT22;4563;54.756;9.400;2024-02-21T01:15:49;10.80;88.10
9057;DHT22;4563;54.756;9.400;2024-02-21T01:18:16;10.80;88.10
9057;DHT22;4563;54.756;9.400;2024-02-21T01:20:44;10.80;88.10
9057;DHT22;4563;54.756;9.400;2024-02-21T01:23:11;10.80;88.20
9057;DHT22;4563;54.756;9.400;2024-02-21T01:25:38;10.80;88.20
9057;DHT22;4563;54.756;9.400;2024-02-21T01:28:05;10.80;88.20
9057;DHT22;4563;54.756;9.400;2024-02-21T01:30:31;10.80;88.20
9057;DHT22;4563;54.756;9.400;2024-02-21T01:32:58;10.80;88.20
9057;DHT22;4563;54.756;9.400;2024-02-21T01:35:25;10.80;88.20
9057;DHT22;4563;54.756;9.400;2024-02-21T01:37:53;10.80;88.20
9057;DHT22;4563;54.756;9.400;2024-02-21T01:40:20;10.80;88.20
9057;DHT22;4563;54.756;9.400;2024-02-21T01:42:46;10.80;88.30
9057;DHT22;4563;54.756;9.400;2024-02-21T01:45:14;10.80;88.30
9057;DHT22;4563;54.756;9.400;2024-02-21T01:47:41;10.80;88.30
9057;DHT22;4563;54.756;9.400;2024-02-21T01:50:08;10.80;88.30
9057;DHT22;4563;54.756;9.400;2024-02-21T01:52:36;10.80;88.30
9057;DHT22;4563;54.756;9.400;2024-02-21T01:55:05;10.80;88.30
9057;DHT22;4563;54.756;9.400;2024-02-21T01:57:32;10.80;88.30
9057;DHT22;4563;54.756;9.400;2024-02-21T01:59:59;10.80;88.30
9057;DHT22;4563;54.756;9.400;2024-02-21T02:02:26;10.80;88.40
9057;DHT22;4563;54.756;9.400;2024-02-21T02:04:54;10.80;88.40
9057;DHT22;4563;54.756;9.400;2024-02-21T02:07:21;10.80;88.40
9057;DHT22;4563;54.756;9.400;2024-02-21T02:09:48;10.80;88.40
9057;DHT22;4563;54.756;9.400;2024-02-21T02:12:16;10.80;88.40
9057;DHT22;4563;54.756;9.400;2024-02-21T02:14:43;10.80;88.40
9057;DHT22;4563;54.756;9.400;2024-02-21T02:17:10;10.80;88.50
9057;DHT22;4563;54.756;9.400;2024-02-21T02:19:37;10.80;88.40
9057;DHT22;4563;54.756;9.400;2024-02-21T02:22:08;10.90;88.60
9057;DHT22;4563;54.756;9.400;2024-02-21T02:24:37;10.90;88.60
9057;DHT22;4563;54.756;9.400;2024-02-21T02:27:04;10.80;88.50
9057;DHT22;4563;54.756;9.400;2024-02-21T02:29:32;10.80;88.50
9057;DHT22;4563;54.756;9.400;2024-02-21T02:31:59;10.80;88.50
9057;DHT22;4563;54.756;9.400;2024-02-21T02:34:25;10.80;88.50
9057;DHT22;4563;54.756;9.400;2024-02-21T02:36:52;10.80;88.50
9057;DHT22;4563;54.756;9.400;2024-02-21T02:39:20;10.80;88.60
9057;DHT22;4563;54.756;9.400;2024-02-21T02:41:48;10.80;88.50
9057;DHT22;4563;54.756;9.400;2024-02-21T02:44:15;10.80;88.50
9057;DHT22;4563;54.756;9.400;2024-02-21T02:46:41;10.80;88.60
9057;DHT22;4563;54.756;9.400;2024-02-21T02:49:08;10.80;88.60
9057;DHT22;4563;54.756;9.400;2024-02-21T02:51:35;10.80;88.60
9057;DHT22;4563;54.756;9.400;2024-02-21T02:54:02;10.80;88.60
9057;DHT22;4563;54.756;9.400;2024-02-21T02:56:29;10.80;88.60
9057;DHT22;4563;54.756;9.400;2024-02-21T02:58:57;10.80;88.60
9057;DHT22;4563;54.756;9.400;2024-02-21T03:01:24;10.80;88.60
9057;DHT22;4563;54.756;9.400;2024-02-21T03:03:51;10.80;88.60
9057;DHT22;4563;54.756;9.400;2024-02-21T03:06:17;10.80;88.70
9057;DHT22;4563;54.756;9.400;2024-02-21T03:08:44;10.80;88.60
9057;DHT22;4563;54.756;9.400;2024-02-21T03:11:11;10.80;88.60
9057;DHT22;4563;54.756;9.400;2024-02-21T03:13:38;10.80;88.60
9057;DHT22;4563;54.756;9.400;2024-02-21T03:16:06;10.80;88.60
9057;DHT22;4563;54.756;9.400;2024-02-21T03:18:33;10.80;89.40
9057;DHT22;4563;54.756;9.400;2024-02-21T03:21:00;10.80;88.70
9057;DHT22;4563;54.756;9.400;2024-02-21T03:23:27;10.80;88.60
9057;DHT22;4563;54.756;9.400;2024-02-21T03:25:54;10.80;88.70
9057;DHT22;4563;54.756;9.400;2024-02-21T03:28:20;10.80;88.70
9057;DHT22;4563;54.756;9.400;2024-02-21T03:30:47;10.80;88.60
9057;DHT22;4563;54.756;9.400;2024-02-21T03:33:15;10.80;88.60
9057;DHT22;4563;54.756;9.400;2024-02-21T03:35:42;10.80;88.60
9057;DHT22;4563;54.756;9.400;2024-02-21T03:38:09;10.70;88.50
9057;DHT22;4563;54.756;9.400;2024-02-21T03:40:36;10.70;88.50
9057;DHT22;4563;54.756;9.400;2024-02-21T03:43:03;10.70;88.50
9057;DHT22;4563;54.756;9.400;2024-02-21T03:45:29;10.70;88.50
9057;DHT22;4563;54.756;9.400;2024-02-21T03:47:56;10.70;88.50
9057;DHT22;4563;54.756;9.400;2024-02-21T03:50:24;10.70;88.50
9057;DHT22;4563;54.756;9.400;2024-02-21T03:52:53;10.70;88.50
9057;DHT22;4563;54.756;9.400;2024-02-21T03:55:19;10.70;88.50
9057;DHT22;4563;54.756;9.400;2024-02-21T03:57:47;10.70;88.50
9057;DHT22;4563;54.756;9.400;2024-02-21T04:00:14;10.70;88.50
9057;DHT22;4563;54.756;9.400;2024-02-21T04:02:41;10.70;88.40
9057;DHT22;4563;54.756;9.400;2024-02-21T04:05:08;10.70;88.40
9057;DHT22;4563;54.756;9.400;2024-02-21T04:07:37;10.70;88.40
9057;DHT22;4563;54.756;9.400;2024-02-21T04:10:05;10.60;88.30
9057;DHT22;4563;54.756;9.400;2024-02-21T04:12:32;10.70;88.40
9057;DHT22;4563;54.756;9.400;2024-02-21T04:14:59;10.60;88.30
9057;DHT22;4563;54.756;9.400;2024-02-21T04:17:26;10.60;88.20
9057;DHT22;4563;54.756;9.400;2024-02-21T04:20:02;10.60;88.20
9057;DHT22;4563;54.756;9.400;2024-02-21T04:22:30;10.60;88.20
9057;DHT22;4563;54.756;9.400;2024-02-21T04:24:59;10.60;88.20
9057;DHT22;4563;54.756;9.400;2024-02-21T04:27:26;10.50;88.00
9057;DHT22;4563;54.756;9.400;2024-02-21T04:29:53;10.50;88.00
9057;DHT22;4563;54.756;9.400;2024-02-21T04:32:20;10.50;88.00
9057;DHT22;4563;54.756;9.400;2024-02-21T04:34:47;10.50;88.00
9057;DHT22;4563;54.756;9.400;2024-02-21T04:37:14;10.50;87.90
9057;DHT22;4563;54.756;9.400;2024-02-21T04:39:40;10.50;87.90
9057;DHT22;4563;54.756;9.400;2024-02-21T04:42:08;10.40;87.70
9057;DHT22;4563;54.756;9.400;2024-02-21T04:44:35;10.40;87.60
9057;DHT22;4563;54.756;9.400;2024-02-21T04:47:02;10.40;87.60
9057;DHT22;4563;54.756;9.400;2024-02-21T04:49:29;10.40;87.60
9057;DHT22;4563;54.756;9.400;2024-02-21T04:51:57;10.40;87.50
9057;DHT22;4563;54.756;9.400;2024-02-21T04:54:24;10.40;87.50
9057;DHT22;4563;54.756;9.400;2024-02-21T04:56:50;10.40;88.20
9057;DHT22;4563;54.756;9.400;2024-02-21T04:59:19;10.40;87.40
9057;DHT22;4563;54.756;9.400;2024-02-21T05:01:45;10.30;87.30
9057;DHT22;4563;54.756;9.400;2024-02-21T05:04:12;10.30;87.30
9057;DHT22;4563;54.756;9.400;2024-02-21T05:06:39;10.30;87.20
9057;DHT22;4563;54.756;9.400;2024-02-21T05:09:07;10.30;87.20
9057;DHT22;4563;54.756;9.400;2024-02-21T05:11:35;10.30;87.20
9057;DHT22;4563;54.756;9.400;2024-02-21T05:14:02;10.30;87.10
9057;DHT22;4563;54.756;9.400;2024-02-21T05:16:30;10.30;87.10
9057;DHT22;4563;54.756;9.400;2024-02-21T05:18:57;10.30;87.10
9057;DHT22;4563;54.756;9.400;2024-02-21T05:21:24;10.20;87.00
9057;DHT22;4563;54.756;9.400;2024-02-21T05:23:51;10.20;87.00
9057;DHT22;4563;54.756;9.400;2024-02-21T05:26:20;10.20;87.00
9057;DHT22;4563;54.756;9.400;2024-02-21T05:28:48;10.20;87.00
9057;DHT22;4563;54.756;9.400;2024-02-21T05:31:15;10.20;87.00
9057;DHT22;4563;54.756;9.400;2024-02-21T05:33:43;10.20;86.90
9057;DHT22;4563;54.756;9.400;2024-02-21T05:36:10;10.20;86.90
9057;DHT22;4563;54.756;9.400;2024-02-21T05:38:36;10.10;86.70
9057;DHT22;4563;54.756;9.400;2024-02-21T05:41:04;10.10;86.80
9057;DHT22;4563;54.756;9.400;2024-02-21T05:43:31;10.10;86.70
9057;DHT22;4563;54.756;9.400;2024-02-21T05:45:58;10.10;86.70
9057;DHT22;4563;54.756;9.400;2024-02-21T05:48:25;10.10;86.70
9057;DHT22;4563;54.756;9.400;2024-02-21T05:50:53;10.10;86.70
9057;DHT22;4563;54.756;9.400;2024-02-21T05:53:19;10.10;86.60
9057;DHT22;4563;54.756;9.400;2024-02-21T05:55:46;10.10;86.70
9057;DHT22;4563;54.756;9.400;2024-02-21T05:58:13;10.00;86.50
9057;DHT22;4563;54.756;9.400;2024-02-21T06:00:40;10.00;86.50
9057;DHT22;4563;54.756;9.400;2024-02-21T06:03:06;10.00;86.40
9057;DHT22;4563;54.756;9.400;2024-02-21T06:05:37;10.00;86.40
9057;DHT22;4563;54.756;9.400;2024-02-21T06:08:05;10.00;86.30
9057;DHT22;4563;54.756;9.400;2024-02-21T06:10:32;10.00;86.30
9057;DHT22;4563;54.756;9.400;2024-02-21T06:12:59;10.00;86.30
9057;DHT22;4563;54.756;9.400;2024-02-21T06:15:26;9.90;87.30
9057;DHT22;4563;54.756;9.400;2024-02-21T06:17:52;9.90;87.30
9057;DHT22;4563;54.756;9.400;2024-02-21T06:20:19;9.90;87.40
9057;DHT22;4563;54.756;9.400;2024-02-21T06:22:46;9.90;87.30
9057;DHT22;4563;54.756;9.400;2024-02-21T06:25:14;9.80;87.20
9057;DHT22;4563;54.756;9.400;2024-02-21T06:27:41;9.90;87.20
9057;DHT22;4563;54.756;9.400;2024-02-21T06:30:08;9.80;87.10
9057;DHT22;4563;54.756;9.400;2024-02-21T06:32:35;9.80;87.10
9057;DHT22;4563;54.756;9.400;2024-02-21T06:35:03;9.80;87.00
9057;DHT22;4563;54.756;9.400;2024-02-21T06:37:30;9.80;87.00
9057;DHT22;4563;54.756;9.400;2024-02-21T06:39:57;9.70;86.90
9057;DHT22;4563;54.756;9.400;2024-02-21T06:42:26;9.70;86.80
9057;DHT22;4563;54.756;9.400;2024-02-21T06:44:53;9.70;86.70
9057;DHT22;4563;54.756;9.400;2024-02-21T06:47:21;9.70;86.70
9057;DHT22;4563;54.756;9.400;2024-02-21T06:49:49;9.60;86.60
9057;DHT22;4563;54.756;9.400;2024-02-21T06:52:17;9.60;86.60
9057;DHT22;4563;54.756;9.400;2024-02-21T06:54:45;9.60;86.60
9057;DHT22;4563;54.756;9.400;2024-02-21T06:57:12;9.60;86.60
9057;DHT22;4563;54.756;9.400;2024-02-21T06:59:41;9.60;86.60
9057;DHT22;4563;54.756;9.400;2024-02-21T07:02:08;9.50;86.50
9057;DHT22;4563;54.756;9.400;2024-02-21T07:04:35;9.50;86.50
9057;DHT22;4563;54.756;9.400;2024-02-21T07:07:01;9.50;86.50
9057;DHT22;4563;54.756;9.400;2024-02-21T07:09:29;9.50;87.20
9057;DHT22;4563;54.756;9.400;2024-02-21T07:11:57;9.40;86.40
9057;DHT22;4563;54.756;9.400;2024-02-21T07:14:24;9.40;86.40
9057;DHT22;4563;54.756;9.400;2024-02-21T07:16:54;9.40;86.40
9057;DHT22;4563;54.756;9.400;2024-02-21T07:19:22;9.40;86.40
9057;DHT22;4563;54.756;9.400;2024-02-21T07:21:49;9.40;86.30
9057;DHT22;4563;54.756;9.400;2024-02-21T07:24:16;9.40;86.30
9057;DHT22;4563;54.756;9.400;2024-02-21T07:26:43;9.30;86.30
9057;DHT22;4563;54.756;9.400;2024-02-21T07:29:10;9.30;86.20
9057;DHT22;4563;54.756;9.400;2024-02-21T07:31:40;9.30;86.30
9057;DHT22;4563;54.756;9.400;2024-02-21T07:34:09;9.30;86.30
9057;DHT22;4563;54.756;9.400;2024-02-21T07:36:36;9.30;86.20
9057;DHT22;4563;54.756;9.400;2024-02-21T07:39:04;9.20;86.20
9057;DHT22;4563;54.756;9.400;2024-02-21T07:41:31;9.20;86.10
9057;DHT22;4563;54.756;9.400;2024-02-21T07:43:59;9.20;86.80
9057;DHT22;4563;54.756;9.400;2024-02-21T07:46:26;9.20;86.20
9057;DHT22;4563;54.756;9.400;2024-02-21T07:48:52;9.20;86.20
9057;DHT22;4563;54.756;9.400;2024-02-21T07:51:20;9.20;86.10
9057;DHT22;4563;54.756;9.400;2024-02-21T07:53:47;9.20;86.80
9057;DHT22;4563;54.756;9.400;2024-02-21T07:56:14;9.20;86.10
9057;DHT22;4563;54.756;9.400;2024-02-21T07:58:41;9.20;86.20
9057;DHT22;4563;54.756;9.400;2024-02-21T08:01:08;9.20;86.10
9057;DHT22;4563;54.756;9.400;2024-02-21T08:03:35;9.20;86.10
9057;DHT22;4563;54.756;9.400;2024-02-21T08:06:03;9.20;86.10
9057;DHT22;4563;54.756;9.400;2024-02-21T08:08:31;9.20;86.10
9057;DHT22;4563;54.756;9.400;2024-02-21T08:10:58;9.20;86.00
9057;DHT22;4563;54.756;9.400;2024-02-21T08:13:25;9.20;86.10
9057;DHT22;4563;54.756;9.400;2024-02-21T08:15:54;9.20;86.10
9057;DHT22;4563;54.756;9.400;2024-02-21T08:18:20;9.20;86.10
9057;DHT22;4563;54.756;9.400;2024-02-21T08:20:47;9.20;86.10
9057;DHT22;4563;54.756;9.400;2024-02-21T08:23:16;9.20;86.10
9057;DHT22;4563;54.756;9.400;2024-02-21T08:25:44;9.20;86.20
9057;DHT22;4563;54.756;9.400;2024-02-21T08:28:12;9.20;86.10
9057;DHT22;4563;54.756;9.400;2024-02-21T08:30:38;9.20;86.20
9057;DHT22;4563;54.756;9.400;2024-02-21T08:33:05;9.20;86.20
9057;DHT22;4563;54.756;9.400;2024-02-21T08:35:32;9.20;86.20
9057;DHT22;4563;54.756;9.400;2024-02-21T08:37:59;9.20;86.10
9057;DHT22;4563;54.756;9.400;2024-02-21T08:40:26;9.20;86.20
9057;DHT22;4563;54.756;9.400;2024-02-21T08:42:54;9.20;86.20
9057;DHT22;4563;54.756;9.400;2024-02-21T08:45:20;9.30;86.20
9057;DHT22;4563;54.756;9.400;2024-02-21T08:47:47;9.30;86.30
9057;DHT22;4563;54.756;9.400;2024-02-21T08:50:14;9.30;86.30
9057;DHT22;4563;54.756;9.400;2024-02-21T08:52:41;9.30;86.30
9057;DHT22;4563;54.756;9.400;2024-02-21T08:55:08;9.30;86.30
9057;DHT22;4563;54.756;9.400;2024-02-21T08:57:35;9.30;86.30
9057;DHT22;4563;54.756;9.400;2024-02-21T09:00:06;9.30;86.30
9057;DHT22;4563;54.756;9.400;2024-02-21T09:02:35;9.40;86.40
9057;DHT22;4563;54.756;9.400;2024-02-21T09:05:03;9.40;86.40
9057;DHT22;4563;54.756;9.400;2024-02-21T09:07:31;9.40;86.40
9057;DHT22;4563;54.756;9.400;2024-02-21T09:09:58;9.40;86.40
9057;DHT22;4563;54.756;9.400;2024-02-21T09:12:25;9.40;86.40
9057;DHT22;4563;54.756;9.400;2024-02-21T09:14:51;9.40;86.40
9057;DHT22;4563;54.756;9.400;2024-02-21T09:17:20;9.50;86.50
9057;DHT22;4563;54.756;9.400;2024-02-21T09:19:47;9.50;86.60
9057;DHT22;4563;54.756;9.400;2024-02-21T09:22:14;9.50;86.50
9057;DHT22;4563;54.756;9.400;2024-02-21T09:24:41;9.50;86.50
9057;DHT22;4563;54.756;9.400;2024-02-21T09:27:07;9.50;86.50
9057;DHT22;4563;54.756;9.400;2024-02-21T09:29:34;9.60;86.60
9057;DHT22;4563;54.756;9.400;2024-02-21T09:32:01;9.60;86.60
9057;DHT22;4563;54.756;9.400;2024-02-21T09:34:30;9.60;86.60
9057;DHT22;4563;54.756;9.400;2024-02-21T09:36:57;9.60;86.60
9057;DHT22;4563;54.756;9.400;2024-02-21T09:39:24;9.70;86.70
9057;DHT22;4563;54.756;9.400;2024-02-21T09:41:54;9.70;86.60
9057;DHT22;4563;54.756;9.400;2024-02-21T09:44:24;9.70;86.60
9057;DHT22;4563;54.756;9.400;2024-02-21T09:47:01;9.70;86.50
9057;DHT22;4563;54.756;9.400;2024-02-21T09:49:32;9.70;86.50
9057;DHT22;4563;54.756;9.400;2024-02-21T09:52:01;9.80;86.60
9057;DHT22;4563;54.756;9.400;2024-02-21T09:54:29;9.80;86.60
9057;DHT22;4563;54.756;9.400;2024-02-21T09:56:56;9.80;86.50
9057;DHT22;4563;54.756;9.400;2024-02-21T09:59:24;9.80;86.50
9057;DHT22;4563;54.756;9.400;2024-02-21T10:01:51;9.90;86.50
9057;DHT22;4563;54.756;9.400;2024-02-21T10:04:18;9.90;86.60
9057;DHT22;4563;54.756;9.400;2024-02-21T10:06:46;9.90;86.50
9057;DHT22;4563;54.756;9.400;2024-02-21T10:09:20;9.90;86.50
9057;DHT22;4563;54.756;9.400;2024-02-21T10:11:48;10.00;85.40
9057;DHT22;4563;54.756;9.400;2024-02-21T10:14:15;10.00;85.40
9057;DHT22;4563;54.756;9.400;2024-02-21T10:16:42;10.00;85.30
9057;DHT22;4563;54.756;9.400;2024-02-21T10:19:17;10.00;85.20
9057;DHT22;4563;54.756;9.400;2024-02-21T10:21:57;10.10;85.20
9057;DHT22;4563;54.756;9.400;2024-02-21T10:24:26;10.10;85.20
9057;DHT22;4563;54.756;9.400;2024-02-21T10:26:59;10.10;85.00
9057;DHT22;4563;54.756;9.400;2024-02-21T10:29:26;10.10;85.20
9057;DHT22;4563;54.756;9.400;2024-02-21T10:32:06;10.20;85.00
9057;DHT22;4563;54.756;9.400;2024-02-21T10:34:33;10.20;85.10
9057;DHT22;4563;54.756;9.400;2024-02-21T10:37:03;10.20;84.80
9057;DHT22;4563;54.756;9.400;2024-02-21T10:39:30;10.30;84.80
9057;DHT22;4563;54.756;9.400;2024-02-21T10:42:00;10.30;84.70
9057;DHT22;4563;54.756;9.400;2024-02-21T10:44:28;10.30;84.60
9057;DHT22;4563;54.756;9.400;2024-02-21T10:46:56;10.40;84.60
9057;DHT22;4563;54.756;9.400;2024-02-21T10:49:24;10.40;84.60
9057;DHT22;4563;54.756;9.400;2024-02-21T10:51:55;10.40;84.60
9057;DHT22;4563;54.756;9.400;2024-02-21T10:54:39;10.40;84.50
9057;DHT22;4563;54.756;9.400;2024-02-21T10:57:07;10.40;84.60
9057;DHT22;4563;54.756;9.400;2024-02-21T10:59:37;10.50;84.50
9057;DHT22;4563;54.756;9.400;2024-02-21T11:02:04;10.50;84.30
9057;DHT22;4563;54.756;9.400;2024-02-21T11:04:31;10.50;84.20
9057;DHT22;4563;54.756;9.400;2024-02-21T11:07:02;10.50;84.20
9057;DHT22;4563;54.756;9.400;2024-02-21T11:09:32;10.60;84.20
9057;DHT22;4563;54.756;9.400;2024-02-21T11:12:02;10.60;84.00
9057;DHT22;4563;54.756;9.400;2024-02-21T11:14:29;10.60;84.00
9057;DHT22;4563;54.756;9.400;2024-02-21T11:16:58;10.60;83.90
9057;DHT22;4563;54.756;9.400;2024-02-21T11:19:26;10.70;83.90
9057;DHT22;4563;54.756;9.400;2024-02-21T11:21:54;10.70;83.70
9057;DHT22;4563;54.756;9.400;2024-02-21T11:24:28;10.70;83.80
9057;DHT22;4563;54.756;9.400;2024-02-21T11:27:08;10.70;83.90
9057;DHT22;4563;54.756;9.400;2024-02-21T11:29:40;10.70;84.10
9057;DHT22;4563;54.756;9.400;2024-02-21T11:32:09;10.70;83.90
9057;DHT22;4563;54.756;9.400;2024-02-21T11:34:36;10.80;83.80
9057;DHT22;4563;54.756;9.400;2024-02-21T11:37:13;10.80;83.80
9057;DHT22;4563;54.756;9.400;2024-02-21T11:39:41;10.90;84.10
9057;DHT22;4563;54.756;9.400;2024-02-21T11:42:10;10.90;84.00
9057;DHT22;4563;54.756;9.400;2024-02-21T11:44:38;10.90;84.00
9057;DHT22;4563;54.756;9.400;2024-02-21T11:47:08;10.90;83.90
9057;DHT22;4563;54.756;9.400;2024-02-21T11:49:37;11.00;84.10
9057;DHT22;4563;54.756;9.400;2024-02-21T11:52:04;11.00;84.00
9057;DHT22;4563;54.756;9.400;2024-02-21T11:54:32;11.00;83.90
9057;DHT22;4563;54.756;9.400;2024-02-21T11:57:00;11.10;84.00
9057;DHT22;4563;54.756;9.400;2024-02-21T11:59:30;11.10;84.00
9057;DHT22;4563;54.756;9.400;2024-02-21T12:01:59;11.10;84.00
9057;DHT22;4563;54.756;9.400;2024-02-21T12:04:26;11.20;84.10
9057;DHT22;4563;54.756;9.400;2024-02-21T12:06:53;11.20;84.00
9057;DHT22;4563;54.756;9.400;2024-02-21T12:09:20;11.20;83.90
9057;DHT22;4563;54.756;9.400;2024-02-21T12:11:57;11.30;84.00
9057;DHT22;4563;54.756;9.400;2024-02-21T12:14:24;11.30;84.10
9057;DHT22;4563;54.756;9.400;2024-02-21T12:16:53;11.30;83.90
9057;DHT22;4563;54.756;9.400;2024-02-21T12:19:20;11.30;83.90
9057;DHT22;4563;54.756;9.400;2024-02-21T12:21:48;11.40;84.00
9057;DHT22;4563;54.756;9.400;2024-02-21T12:24:20;11.30;83.80
9057;DHT22;4563;54.756;9.400;2024-02-21T12:26:47;11.40;83.90
9057;DHT22;4563;54.756;9.400;2024-02-21T12:29:14;11.40;83.90
9057;DHT22;4563;54.756;9.400;2024-02-21T12:31:41;11.40;83.90
9057;DHT22;4563;54.756;9.400;2024-02-21T12:34:09;11.40;84.00
9057;DHT22;4563;54.756;9.400;2024-02-21T12:36:40;11.40;83.90
9057;DHT22;4563;54.756;9.400;2024-02-21T12:39:07;11.40;83.90
9057;DHT22;4563;54.756;9.400;2024-02-21T12:41:34;11.40;83.90
9057;DHT22;4563;54.756;9.400;2024-02-21T12:44:03;11.50;84.00
9057;DHT22;4563;54.756;9.400;2024-02-21T12:46:32;11.50;84.00
9057;DHT22;4563;54.756;9.400;2024-02-21T12:48:59;11.50;84.00
9057;DHT22;4563;54.756;9.400;2024-02-21T12:51:27;11.50;84.00
9057;DHT22;4563;54.756;9.400;2024-02-21T12:53:55;11.50;84.10
9057;DHT22;4563;54.756;9.400;2024-02-21T12:56:22;11.50;84.10
9057;DHT22;4563;54.756;9.400;2024-02-21T12:58:49;11.50;84.20
9057;DHT22;4563;54.756;9.400;2024-02-21T13:01:16;11.50;84.20
9057;DHT22;4563;54.756;9.400;2024-02-21T13:03:43;11.50;84.40
9057;DHT22;4563;54.756;9.400;2024-02-21T13:06:10;11.50;84.40
9057;DHT22;4563;54.756;9.400;2024-02-21T13:08:38;11.50;84.50
9057;DHT22;4563;54.756;9.400;2024-02-21T13:11:06;11.50;84.60
9057;DHT22;4563;54.756;9.400;2024-02-21T13:13:32;11.50;84.60
9057;DHT22;4563;54.756;9.400;2024-02-21T13:15:59;11.50;84.70
9057;DHT22;4563;54.756;9.400;2024-02-21T13:18:26;11.50;84.80
9057;DHT22;4563;54.756;9.400;2024-02-21T13:20:53;11.40;84.80
9057;DHT22;4563;54.756;9.400;2024-02-21T13:23:20;11.50;84.90
9057;DHT22;4563;54.756;9.400;2024-02-21T13:25:49;11.50;84.90
9057;DHT22;4563;54.756;9.400;2024-02-21T13:28:16;11.50;84.90
9057;DHT22;4563;54.756;9.400;2024-02-21T13:30:43;11.50;85.10
9057;DHT22;4563;54.756;9.400;2024-02-21T13:33:10;11.50;85.10
9057;DHT22;4563;54.756;9.400;2024-02-21T13:35:37;11.50;85.20
9057;DHT22;4563;54.756;9.400;2024-02-21T13:38:04;11.50;85.20
9057;DHT22;4563;54.756;9.400;2024-02-21T13:40:31;11.40;85.20
9057;DHT22;4563;54.756;9.400;2024-02-21T13:42:59;11.50;85.40
9057;DHT22;4563;54.756;9.400;2024-02-21T13:45:26;11.40;85.40
9057;DHT22;4563;54.756;9.400;2024-02-21T13:47:53;11.40;86.20
9057;DHT22;4563;54.756;9.400;2024-02-21T13:50:21;11.50;85.70
9057;DHT22;4563;54.756;9.400;2024-02-21T13:52:48;11.40;85.60
9057;DHT22;4563;54.756;9.400;2024-02-21T13:55:15;11.50;85.70
9057;DHT22;4563;54.756;9.400;2024-02-21T13:57:42;11.50;85.80
9057;DHT22;4563;54.756;9.400;2024-02-21T14:00:11;11.50;85.80
9057;DHT22;4563;54.756;9.400;2024-02-21T14:02:37;11.50;85.80
9057;DHT22;4563;54.756;9.400;2024-02-21T14:05:05;11.50;85.80
9057;DHT22;4563;54.756;9.400;2024-02-21T14:07:32;11.50;85.90
9057;DHT22;4563;54.756;9.400;2024-02-21T14:09:59;11.50;85.90
9057;DHT22;4563;54.756;9.400;2024-02-21T14:12:26;11.40;85.90
9057;DHT22;4563;54.756;9.400;2024-02-21T14:14:53;11.40;85.90
9057;DHT22;4563;54.756;9.400;2024-02-21T14:17:23;11.50;86.10
9057;DHT22;4563;54.756;9.400;2024-02-21T14:19:51;11.50;86.10
9057;DHT22;4563;54.756;9.400;2024-02-21T14:22:18;11.40;86.00
9057;DHT22;4563;54.756;9.400;2024-02-21T14:24:45;11.50;86.20
9057;DHT22;4563;54.756;9.400;2024-02-21T14:27:12;11.40;86.10
9057;DHT22;4563;54.756;9.400;2024-02-21T14:29:39;11.50;86.20
9057;DHT22;4563;54.756;9.400;2024-02-21T14:32:06;11.50;86.30
9057;DHT22;4563;54.756;9.400;2024-02-21T14:34:36;11.40;86.20
9057;DHT22;4563;54.756;9.400;2024-02-21T14:37:04;11.40;86.20
9057;DHT22;4563;54.756;9.400;2024-02-21T14:39:30;11.40;86.20
9057;DHT22;4563;54.756;9.400;2024-02-21T14:41:59;11.40;86.30
9057;DHT22;4563;54.756;9.400;2024-02-21T14:44:26;11.50;86.40
9057;DHT22;4563;54.756;9.400;2024-02-21T14:46:53;11.50;86.50
9057;DHT22;4563;54.756;9.400;2024-02-21T14:49:20;11.50;86.50
9057;DHT22;4563;54.756;9.400;2024-02-21T14:51:48;11.50;86.50
9057;DHT22;4563;54.756;9.400;2024-02-21T14:54:15;11.50;86.50
9057;DHT22;4563;54.756;9.400;2024-02-21T14:56:42;11.50;86.50
9057;DHT22;4563;54.756;9.400;2024-02-21T14:59:09;11.40;86.50
9057;DHT22;4563;54.756;9.400;2024-02-21T15:01:36;11.50;86.60
9057;DHT22;4563;54.756;9.400;2024-02-21T15:04:04;11.40;86.50
9057;DHT22;4563;54.756;9.400;2024-02-21T15:06:31;11.40;86.50
9057;DHT22;4563;54.756;9.400;2024-02-21T15:08:59;11.50;86.60
9057;DHT22;4563;54.756;9.400;2024-02-21T15:11:26;11.40;86.60
9057;DHT22;4563;54.756;9.400;2024-02-21T15:13:53;11.40;86.60
9057;DHT22;4563;54.756;9.400;2024-02-21T15:16:19;11.40;86.60
9057;DHT22;4563;54.756;9.400;2024-02-21T15:18:46;11.40;86.60
9057;DHT22;4563;54.756;9.400;2024-02-21T15:21:13;11.40;86.60
9057;DHT22;4563;54.756;9.400;2024-02-21T15:23:41;11.40;86.60
9057;DHT22;4563;54.756;9.400;2024-02-21T15:26:09;11.50;86.70
9057;DHT22;4563;54.756;9.400;2024-02-21T15:28:36;11.40;87.30
9057;DHT22;4563;54.756;9.400;2024-02-21T15:31:03;11.40;86.60
9057;DHT22;4563;54.756;9.400;2024-02-21T15:33:30;11.40;86.60
9057;DHT22;4563;54.756;9.400;2024-02-21T15:35:57;11.40;86.70
9057;DHT22;4563;54.756;9.400;2024-02-21T15:38:23;11.40;86.80
9057;DHT22;4563;54.756;9.400;2024-02-21T15:40:50;11.40;86.80
9057;DHT22;4563;54.756;9.400;2024-02-21T15:43:18;11.40;86.80
9057;DHT22;4563;54.756;9.400;2024-02-21T15:45:45;11.40;86.80
9057;DHT22;4563;54.756;9.400;2024-02-21T15:48:12;11.30;86.70
9057;DHT22;4563;54.756;9.400;2024-02-21T15:50:39;11.30;86.80
9057;DHT22;4563;54.756;9.400;2024-02-21T15:53:06;11.30;86.70
9057;DHT22;4563;54.756;9.400;2024-02-21T15:55:33;11.30;86.70
9057;DHT22;4563;54.756;9.400;2024-02-21T15:58:00;11.30;86.70
9057;DHT22;4563;54.756;9.400;2024-02-21T16:00:31;11.30;86.80
9057;DHT22;4563;54.756;9.400;2024-02-21T16:02:58;11.30;86.80
9057;DHT22;4563;54.756;9.400;2024-02-21T16:05:25;11.20;86.70
9057;DHT22;4563;54.756;9.400;2024-02-21T16:07:53;11.30;86.80